createdAt,value
2018-02-17T00:00:17.531Z,3.93
2018-02-17T00:00:21.856Z,3.92
2018-02-17T00:00:25.862Z,3.92
2018-02-17T00:00:29.874Z,3.88
2018-02-17T00:00:33.883Z,3.9
2018-02-17T00:00:38.216Z,3.96
2018-02-17T00:00:42.234Z,3.95
2018-02-17T00:00:46.345Z,3.96
2018-02-17T00:00:50.346Z,3.95
2018-02-17T00:00:54.350Z,3.93
2018-02-17T00:00:58.357Z,3.92
2018-02-17T00:01:02.830Z,3.93
2018-02-17T00:01:06.835Z,3.98
2018-02-17T00:01:10.847Z,3.9
2018-02-17T00:01:14.960Z,3.93
2018-02-17T00:01:19.291Z,3.89
2018-02-17T00:01:23.623Z,3.95
2018-02-17T00:01:27.527Z,3.98
2018-02-17T00:01:31.647Z,3.9
2018-02-17T00:01:35.861Z,3.86
2018-02-17T00:01:39.762Z,3.92
2018-02-17T00:01:43.765Z,3.9
2018-02-17T00:01:47.992Z,3.95
2018-02-17T00:01:52.217Z,3.89
2018-02-17T00:01:56.440Z,3.96
2018-02-17T00:02:00.555Z,3.93
2018-02-17T00:02:04.612Z,3.93
2018-02-17T00:02:08.626Z,3.89
2018-02-17T00:02:12.743Z,3.95
2018-02-17T00:02:16.862Z,3.92
2018-02-17T00:02:21.079Z,3.99
2018-02-17T00:02:25.295Z,3.95
2018-02-17T00:02:29.628Z,3.95
2018-02-17T00:02:33.847Z,3.89
2018-02-17T00:02:37.960Z,3.92
2018-02-17T00:02:42.183Z,3.95
2018-02-17T00:02:46.513Z,3.9
2018-02-17T00:02:50.849Z,3.9
2018-02-17T00:02:54.964Z,3.95
2018-02-17T00:02:59.183Z,3.95
2018-02-17T00:03:03.417Z,3.89
2018-02-17T00:03:07.325Z,3.89
2018-02-17T00:03:11.544Z,3.98
2018-02-17T00:03:15.657Z,3.89
2018-02-17T00:03:19.876Z,3.92
2018-02-17T00:03:23.777Z,3.88
2018-02-17T00:03:27.912Z,3.9
2018-02-17T00:03:32.022Z,3.88
2018-02-17T00:03:36.028Z,3.92
2018-02-17T00:03:40.032Z,3.88
2018-02-17T00:03:44.253Z,3.89
2018-02-17T00:03:48.365Z,3.9
2018-02-17T00:03:52.583Z,3.88
2018-02-17T00:03:56.806Z,3.92
2018-02-17T00:04:00.914Z,3.86
2018-02-17T00:04:05.142Z,3.9
2018-02-17T00:04:09.143Z,3.86
2018-02-17T00:04:13.154Z,3.9
2018-02-17T00:04:17.270Z,3.92
2018-02-17T00:04:21.388Z,3.9
2018-02-17T00:04:25.709Z,3.9
2018-02-17T00:04:29.827Z,3.95
2018-02-17T00:04:34.045Z,3.86
2018-02-17T00:04:38.275Z,3.98
2018-02-17T00:04:42.388Z,3.9
2018-02-17T00:04:46.713Z,3.92
2018-02-17T00:04:50.935Z,3.86
2018-02-17T00:04:55.263Z,3.92
2018-02-17T00:04:59.162Z,3.88
2018-02-17T00:05:03.389Z,3.89
2018-02-17T00:05:07.503Z,3.88
2018-02-17T00:05:11.620Z,3.89
2018-02-17T00:05:15.732Z,3.81
2018-02-17T00:05:19.957Z,3.82
2018-02-17T00:05:23.970Z,3.9
2018-02-17T00:05:28.185Z,3.93
2018-02-17T00:05:32.303Z,3.9
2018-02-17T00:05:36.434Z,3.86
2018-02-17T00:05:40.444Z,3.89
2018-02-17T00:05:44.452Z,3.84
2018-02-17T00:05:48.463Z,3.86
2018-02-17T00:05:52.679Z,3.95
2018-02-17T00:05:56.902Z,3.82
2018-02-17T00:06:01.123Z,3.9
2018-02-17T00:06:05.398Z,3.88
2018-02-17T00:06:09.514Z,3.86
2018-02-17T00:06:13.626Z,3.9
2018-02-17T00:06:17.958Z,3.9
2018-02-17T00:06:21.962Z,3.86
2018-02-17T00:06:26.188Z,3.8
2018-02-17T00:06:30.411Z,3.82
2018-02-17T00:06:34.733Z,3.77
2018-02-17T00:06:38.968Z,3.82
2018-02-17T00:06:43.191Z,3.89
2018-02-17T00:06:47.526Z,3.84
2018-02-17T00:06:51.645Z,3.82
2018-02-17T00:06:55.871Z,3.8
2018-02-17T00:07:00.099Z,3.78
2018-02-17T00:07:04.251Z,3.84
2018-02-17T00:07:08.473Z,3.88
2018-02-17T00:07:12.588Z,3.81
2018-02-17T00:07:16.716Z,3.84
2018-02-17T00:07:20.827Z,3.89
2018-02-17T00:07:24.727Z,3.84
2018-02-17T00:07:28.956Z,3.88
2018-02-17T00:07:33.071Z,3.78
2018-02-17T00:07:37.305Z,3.81
2018-02-17T00:07:41.312Z,3.8
2018-02-17T00:07:45.649Z,3.82
2018-02-17T00:07:49.761Z,3.78
2018-02-17T00:07:53.773Z,3.78
2018-02-17T00:07:57.994Z,3.81
2018-02-17T00:08:02.110Z,3.78
2018-02-17T00:08:06.230Z,3.82
2018-02-17T00:08:10.337Z,3.8
2018-02-17T00:08:14.559Z,3.84
2018-02-17T00:08:18.563Z,3.88
2018-02-17T00:08:22.889Z,3.81
2018-02-17T00:08:27.115Z,3.78
2018-02-17T00:08:31.230Z,3.8
2018-02-17T00:08:35.342Z,3.8
2018-02-17T00:08:39.247Z,3.78
2018-02-17T00:08:43.360Z,3.81
2018-02-17T00:08:47.374Z,3.82
2018-02-17T00:08:51.378Z,3.75
2018-02-17T00:08:55.632Z,3.75
2018-02-17T00:08:59.753Z,3.8
2018-02-17T00:09:04.030Z,3.77
2018-02-17T00:09:08.250Z,3.77
2018-02-17T00:09:12.475Z,3.78
2018-02-17T00:09:16.586Z,3.84
2018-02-17T00:09:20.809Z,3.82
2018-02-17T00:09:25.035Z,3.77
2018-02-17T00:09:29.149Z,3.74
2018-02-17T00:09:33.378Z,3.78
2018-02-17T00:09:37.384Z,3.78
2018-02-17T00:09:41.617Z,3.8
2018-02-17T00:09:45.620Z,3.77
2018-02-17T00:09:49.955Z,3.82
2018-02-17T00:09:54.076Z,3.75
2018-02-17T00:09:58.292Z,3.8
2018-02-17T00:10:02.420Z,3.86
2018-02-17T00:10:06.360Z,3.75
2018-02-17T00:10:10.267Z,3.81
2018-02-17T00:10:14.599Z,3.72
2018-02-17T00:10:18.606Z,3.8
2018-02-17T00:10:22.720Z,3.75
2018-02-17T00:10:26.830Z,3.84
2018-02-17T00:10:30.840Z,3.78
2018-02-17T00:10:34.968Z,3.81
2018-02-17T00:10:39.181Z,3.72
2018-02-17T00:10:43.305Z,3.75
2018-02-17T00:10:47.307Z,3.8
2018-02-17T00:10:51.315Z,3.77
2018-02-17T00:10:55.435Z,3.74
2018-02-17T00:10:59.339Z,3.74
2018-02-17T00:11:03.455Z,3.72
2018-02-17T00:11:07.679Z,3.8
2018-02-17T00:11:11.579Z,3.89
2018-02-17T00:11:15.913Z,3.81
2018-02-17T00:11:19.916Z,3.77
2018-02-17T00:11:24.141Z,3.8
2018-02-17T00:11:28.250Z,3.78
2018-02-17T00:11:32.477Z,3.84
2018-02-17T00:11:36.814Z,3.75
2018-02-17T00:11:40.818Z,3.77
2018-02-17T00:11:45.149Z,3.78
2018-02-17T00:11:49.368Z,3.82
2018-02-17T00:11:53.690Z,3.82
2018-02-17T00:11:57.906Z,3.67
2018-02-17T00:12:02.131Z,3.77
2018-02-17T00:12:06.141Z,3.77
2018-02-17T00:12:10.258Z,3.74
2018-02-17T00:12:14.483Z,3.77
2018-02-17T00:12:18.716Z,3.74
2018-02-17T00:12:22.724Z,3.78
2018-02-17T00:12:26.946Z,3.81
2018-02-17T00:12:31.207Z,3.78
2018-02-17T00:12:35.428Z,3.71
2018-02-17T00:12:39.766Z,3.77
2018-02-17T00:12:43.885Z,3.77
2018-02-17T00:12:48.106Z,3.74
2018-02-17T00:12:52.215Z,3.75
2018-02-17T00:12:56.330Z,3.75
2018-02-17T00:13:00.661Z,3.74
2018-02-17T00:13:04.891Z,3.89
2018-02-17T00:13:09.115Z,3.7
2018-02-17T00:13:13.124Z,3.78
2018-02-17T00:13:17.241Z,3.75
2018-02-17T00:13:21.469Z,3.78
2018-02-17T00:13:25.589Z,3.78
2018-02-17T00:13:29.811Z,3.78
2018-02-17T00:13:34.053Z,3.75
2018-02-17T00:13:38.276Z,3.71
2018-02-17T00:13:42.657Z,3.67
2018-02-17T00:13:46.986Z,3.77
2018-02-17T00:13:51.209Z,3.77
2018-02-17T00:13:55.330Z,3.78
2018-02-17T00:13:59.563Z,3.74
2018-02-17T00:14:03.725Z,3.74
2018-02-17T00:14:07.739Z,3.81
2018-02-17T00:14:11.856Z,3.74
2018-02-17T00:14:16.080Z,3.77
2018-02-17T00:14:20.415Z,3.77
2018-02-17T00:14:24.533Z,3.8
2018-02-17T00:14:28.539Z,3.78
2018-02-17T00:14:32.655Z,3.77
2018-02-17T00:14:36.887Z,3.8
2018-02-17T00:14:41.215Z,3.78
2018-02-17T00:14:45.556Z,3.64
2018-02-17T00:14:49.896Z,3.75
2018-02-17T00:14:54.122Z,3.78
2018-02-17T00:14:58.137Z,3.77
2018-02-17T00:15:02.305Z,3.78
2018-02-17T00:15:06.532Z,3.75
2018-02-17T00:15:10.646Z,3.74
2018-02-17T00:15:14.976Z,3.78
2018-02-17T00:15:19.309Z,3.77
2018-02-17T00:15:23.424Z,3.74
2018-02-17T00:15:27.754Z,3.75
2018-02-17T00:15:31.865Z,3.74
2018-02-17T00:15:36.199Z,3.84
2018-02-17T00:15:40.307Z,3.77
2018-02-17T00:15:44.206Z,3.78
2018-02-17T00:15:48.317Z,3.64
2018-02-17T00:15:52.330Z,3.74
2018-02-17T00:15:56.338Z,3.7
2018-02-17T00:16:00.583Z,3.74
2018-02-17T00:16:04.635Z,3.72
2018-02-17T00:16:08.642Z,3.78
2018-02-17T00:16:12.970Z,3.74
2018-02-17T00:16:17.310Z,3.68
2018-02-17T00:16:21.533Z,3.67
2018-02-17T00:16:25.541Z,3.6
2018-02-17T00:16:29.654Z,3.7
2018-02-17T00:16:33.985Z,3.71
2018-02-17T00:16:37.989Z,3.71
2018-02-17T00:16:42.116Z,3.7
2018-02-17T00:16:46.346Z,3.67
2018-02-17T00:16:50.573Z,3.68
2018-02-17T00:16:54.684Z,3.72
2018-02-17T00:16:58.796Z,3.72
2018-02-17T00:17:03.122Z,3.7
2018-02-17T00:17:07.237Z,3.7
2018-02-17T00:17:11.353Z,3.68
2018-02-17T00:17:15.686Z,3.71
2018-02-17T00:17:19.700Z,3.6
2018-02-17T00:17:23.928Z,3.67
2018-02-17T00:17:28.149Z,3.7
2018-02-17T00:17:32.393Z,3.7
2018-02-17T00:17:36.718Z,3.71
2018-02-17T00:17:40.943Z,3.67
2018-02-17T00:17:45.056Z,3.68
2018-02-17T00:17:49.387Z,3.54
2018-02-17T00:17:53.507Z,3.57
2018-02-17T00:17:57.726Z,3.62
2018-02-17T00:18:01.839Z,3.59
2018-02-17T00:18:06.065Z,3.74
2018-02-17T00:18:09.855Z,3.57
2018-02-17T00:18:13.972Z,3.67
2018-02-17T00:18:18.194Z,3.54
2018-02-17T00:18:22.523Z,3.59
2018-02-17T00:18:26.646Z,3.63
2018-02-17T00:18:30.887Z,3.62
2018-02-17T00:18:35.111Z,3.59
2018-02-17T00:18:39.337Z,3.6
2018-02-17T00:18:43.233Z,3.6
2018-02-17T00:18:47.471Z,3.59
2018-02-17T00:18:51.690Z,3.62
2018-02-17T00:18:55.799Z,3.54
2018-02-17T00:18:59.918Z,3.64
2018-02-17T00:19:04.045Z,3.57
2018-02-17T00:19:08.169Z,3.7
2018-02-17T00:19:12.288Z,3.54
2018-02-17T00:19:16.518Z,3.62
2018-02-17T00:19:20.634Z,3.57
2018-02-17T00:19:24.974Z,3.62
2018-02-17T00:19:29.089Z,3.63
2018-02-17T00:19:33.314Z,3.59
2018-02-17T00:19:37.639Z,3.67
2018-02-17T00:19:41.863Z,3.59
2018-02-17T00:19:46.094Z,3.57
2018-02-17T00:19:50.417Z,3.56
2018-02-17T00:19:54.754Z,3.53
2018-02-17T00:19:58.973Z,3.67
2018-02-17T00:20:03.305Z,3.5
2018-02-17T00:20:07.534Z,3.57
2018-02-17T00:20:11.536Z,3.6
2018-02-17T00:20:15.545Z,3.53
2018-02-17T00:20:19.785Z,3.56
2018-02-17T00:20:24.112Z,3.45
2018-02-17T00:20:28.239Z,3.54
2018-02-17T00:20:32.571Z,3.54
2018-02-17T00:20:36.905Z,3.56
2018-02-17T00:20:41.131Z,3.59
2018-02-17T00:20:45.237Z,3.54
2018-02-17T00:20:49.465Z,3.44
2018-02-17T00:20:53.792Z,3.57
2018-02-17T00:20:58.017Z,3.59
2018-02-17T00:21:02.608Z,3.41
2018-02-17T00:21:06.722Z,3.44
2018-02-17T00:21:10.945Z,3.44
2018-02-17T00:21:15.062Z,3.53
2018-02-17T00:21:19.068Z,3.5
2018-02-17T00:21:23.400Z,3.49
2018-02-17T00:21:27.410Z,3.49
2018-02-17T00:21:31.423Z,3.45
2018-02-17T00:21:35.650Z,3.49
2018-02-17T00:21:39.887Z,3.52
2018-02-17T00:21:44.005Z,3.46
2018-02-17T00:21:48.230Z,3.42
2018-02-17T00:21:52.567Z,3.52
2018-02-17T00:21:56.898Z,3.5
2018-02-17T00:22:00.908Z,3.49
2018-02-17T00:22:05.331Z,3.52
2018-02-17T00:22:09.444Z,3.46
2018-02-17T00:22:13.781Z,3.46
2018-02-17T00:22:18.004Z,3.45
2018-02-17T00:22:22.130Z,3.44
2018-02-17T00:22:26.149Z,3.5
2018-02-17T00:22:30.385Z,3.44
2018-02-17T00:22:34.395Z,3.5
2018-02-17T00:22:38.658Z,3.46
2018-02-17T00:22:42.667Z,3.53
2018-02-17T00:22:46.890Z,3.49
2018-02-17T00:22:51.219Z,3.5
2018-02-17T00:22:55.442Z,3.45
2018-02-17T00:22:59.557Z,3.52
2018-02-17T00:23:03.826Z,3.45
2018-02-17T00:23:07.829Z,3.52
2018-02-17T00:23:12.159Z,3.45
2018-02-17T00:23:16.404Z,3.46
2018-02-17T00:23:20.407Z,3.46
2018-02-17T00:23:24.737Z,3.45
2018-02-17T00:23:28.745Z,3.45
2018-02-17T00:23:32.642Z,3.49
2018-02-17T00:23:36.669Z,3.42
2018-02-17T00:23:40.786Z,3.35
2018-02-17T00:23:44.906Z,3.44
2018-02-17T00:23:48.912Z,3.49
2018-02-17T00:23:53.021Z,3.44
2018-02-17T00:23:57.238Z,3.39
2018-02-17T00:24:01.348Z,3.45
2018-02-17T00:24:05.618Z,3.39
2018-02-17T00:24:09.891Z,3.41
2018-02-17T00:24:14.007Z,3.42
2018-02-17T00:24:18.128Z,3.49
2018-02-17T00:24:22.352Z,3.42
2018-02-17T00:24:26.365Z,3.45
2018-02-17T00:24:30.591Z,3.45
2018-02-17T00:24:34.825Z,3.46
2018-02-17T00:24:38.937Z,3.53
2018-02-17T00:24:43.157Z,3.42
2018-02-17T00:24:47.380Z,3.44
2018-02-17T00:24:51.488Z,3.34
2018-02-17T00:24:55.498Z,3.44
2018-02-17T00:24:59.718Z,3.39
2018-02-17T00:25:03.998Z,3.42
2018-02-17T00:25:08.218Z,3.41
2018-02-17T00:25:12.341Z,3.42
2018-02-17T00:25:16.453Z,3.35
2018-02-17T00:25:20.681Z,3.35
2018-02-17T00:25:24.909Z,3.45
2018-02-17T00:25:29.237Z,3.39
2018-02-17T00:25:33.352Z,3.44
2018-02-17T00:25:37.694Z,3.41
2018-02-17T00:25:41.921Z,3.39
2018-02-17T00:25:46.040Z,3.42
2018-02-17T00:25:50.158Z,3.39
2018-02-17T00:25:54.388Z,3.42
2018-02-17T00:25:58.722Z,3.37
2018-02-17T00:26:02.954Z,3.46
2018-02-17T00:26:06.856Z,3.44
2018-02-17T00:26:11.074Z,3.44
2018-02-17T00:26:15.081Z,3.44
2018-02-17T00:26:19.414Z,3.41
2018-02-17T00:26:23.632Z,3.39
2018-02-17T00:26:27.857Z,3.34
2018-02-17T00:26:32.185Z,3.35
2018-02-17T00:26:36.200Z,3.41
2018-02-17T00:26:40.313Z,3.41
2018-02-17T00:26:44.652Z,3.35
2018-02-17T00:26:48.769Z,3.28
2018-02-17T00:26:52.773Z,3.31
2018-02-17T00:26:57.105Z,3.41
2018-02-17T00:27:01.218Z,3.42
2018-02-17T00:27:05.432Z,3.44
2018-02-17T00:27:09.541Z,3.42
2018-02-17T00:27:13.436Z,3.44
2018-02-17T00:27:17.666Z,3.46
2018-02-17T00:27:21.997Z,3.35
2018-02-17T00:27:26.217Z,3.39
2018-02-17T00:27:30.436Z,3.33
2018-02-17T00:27:34.449Z,3.44
2018-02-17T00:27:38.139Z,3.3
2018-02-17T00:27:42.470Z,3.34
2018-02-17T00:27:46.587Z,3.41
2018-02-17T00:27:50.696Z,3.39
2018-02-17T00:27:54.916Z,3.33
2018-02-17T00:27:59.247Z,3.37
2018-02-17T00:28:03.477Z,3.41
2018-02-17T00:28:07.597Z,3.31
2018-02-17T00:28:11.825Z,3.3
2018-02-17T00:28:15.943Z,3.42
2018-02-17T00:28:20.213Z,3.35
2018-02-17T00:28:24.435Z,3.37
2018-02-17T00:28:28.671Z,3.28
2018-02-17T00:28:32.784Z,3.44
2018-02-17T00:28:37.002Z,3.33
2018-02-17T00:28:41.324Z,3.28
2018-02-17T00:28:45.441Z,3.37
2018-02-17T00:28:49.779Z,3.42
2018-02-17T00:28:54.002Z,3.41
2018-02-17T00:28:58.338Z,3.31
2018-02-17T00:29:02.668Z,3.31
2018-02-17T00:29:06.784Z,3.44
2018-02-17T00:29:10.686Z,3.37
2018-02-17T00:29:15.016Z,3.35
2018-02-17T00:29:19.132Z,3.31
2018-02-17T00:29:23.252Z,3.42
2018-02-17T00:29:27.049Z,3.42
2018-02-17T00:29:31.164Z,3.44
2018-02-17T00:29:35.299Z,3.31
2018-02-17T00:29:39.408Z,3.35
2018-02-17T00:29:43.634Z,3.42
2018-02-17T00:29:47.755Z,3.42
2018-02-17T00:29:51.976Z,3.35
2018-02-17T00:29:56.192Z,3.42
2018-02-17T00:30:00.200Z,3.42
2018-02-17T00:30:04.370Z,3.42
2018-02-17T00:30:08.485Z,3.42
2018-02-17T00:30:12.711Z,3.41
2018-02-17T00:30:16.717Z,3.39
2018-02-17T00:30:21.047Z,3.41
2018-02-17T00:30:25.277Z,3.42
2018-02-17T00:30:29.495Z,3.46
2018-02-17T00:30:33.718Z,3.39
2018-02-17T00:30:37.837Z,3.41
2018-02-17T00:30:41.844Z,3.41
2018-02-17T00:30:46.061Z,3.35
2018-02-17T00:30:50.287Z,3.42
2018-02-17T00:30:54.518Z,3.37
2018-02-17T00:30:58.742Z,3.39
2018-02-17T00:31:02.853Z,3.37
2018-02-17T00:31:07.076Z,3.44
2018-02-17T00:31:11.303Z,3.44
2018-02-17T00:31:15.520Z,3.41
2018-02-17T00:31:19.668Z,3.41
2018-02-17T00:31:23.776Z,3.42
2018-02-17T00:31:28.110Z,3.49
2018-02-17T00:31:32.216Z,3.44
2018-02-17T00:31:36.322Z,3.46
2018-02-17T00:31:40.543Z,3.42
2018-02-17T00:31:44.654Z,3.46
2018-02-17T00:31:48.881Z,3.49
2018-02-17T00:31:53.111Z,3.52
2018-02-17T00:31:57.452Z,3.42
2018-02-17T00:32:01.727Z,3.49
2018-02-17T00:32:05.958Z,3.46
2018-02-17T00:32:10.182Z,3.46
2018-02-17T00:32:14.079Z,3.46
2018-02-17T00:32:18.304Z,3.49
2018-02-17T00:32:22.526Z,3.42
2018-02-17T00:32:26.746Z,3.5
2018-02-17T00:32:30.860Z,3.44
2018-02-17T00:32:34.876Z,3.44
2018-02-17T00:32:39.110Z,3.45
2018-02-17T00:32:43.445Z,3.46
2018-02-17T00:32:47.559Z,3.46
2018-02-17T00:32:51.565Z,3.54
2018-02-17T00:32:55.470Z,3.57
2018-02-17T00:32:59.585Z,3.49
2018-02-17T00:33:03.797Z,3.49
2018-02-17T00:33:07.821Z,3.54
2018-02-17T00:33:11.941Z,3.49
2018-02-17T00:33:15.840Z,3.5
2018-02-17T00:33:19.965Z,3.44
2018-02-17T00:33:24.084Z,3.54
2018-02-17T00:33:28.216Z,3.44
2018-02-17T00:33:32.433Z,3.54
2018-02-17T00:33:36.666Z,3.5
2018-02-17T00:33:40.996Z,3.39
2018-02-17T00:33:45.004Z,3.45
2018-02-17T00:33:49.227Z,3.46
2018-02-17T00:33:53.556Z,3.54
2018-02-17T00:33:57.776Z,3.46
2018-02-17T00:34:01.948Z,3.52
2018-02-17T00:34:06.065Z,3.56
2018-02-17T00:34:10.401Z,3.45
2018-02-17T00:34:14.518Z,3.49
2018-02-17T00:34:18.737Z,3.54
2018-02-17T00:34:22.846Z,3.57
2018-02-17T00:34:27.064Z,3.6
2018-02-17T00:34:31.284Z,3.49
2018-02-17T00:34:35.509Z,3.56
2018-02-17T00:34:39.837Z,3.5
2018-02-17T00:34:44.060Z,3.54
2018-02-17T00:34:48.394Z,3.53
2018-02-17T00:34:52.616Z,3.52
2018-02-17T00:34:56.642Z,3.59
2018-02-17T00:35:00.647Z,3.5
2018-02-17T00:35:04.883Z,3.54
2018-02-17T00:35:08.889Z,3.52
2018-02-17T00:35:13.109Z,3.46
2018-02-17T00:35:17.115Z,3.53
2018-02-17T00:35:21.231Z,3.53
2018-02-17T00:35:25.458Z,3.56
2018-02-17T00:35:29.781Z,3.54
2018-02-17T00:35:33.897Z,3.5
2018-02-17T00:35:38.229Z,3.57
2018-02-17T00:35:42.135Z,3.5
2018-02-17T00:35:46.246Z,3.57
2018-02-17T00:35:50.517Z,3.6
2018-02-17T00:35:54.740Z,3.64
2018-02-17T00:35:58.962Z,3.57
2018-02-17T00:36:03.273Z,3.6
2018-02-17T00:36:07.171Z,3.56
2018-02-17T00:36:11.499Z,3.57
2018-02-17T00:36:15.641Z,3.56
2018-02-17T00:36:19.984Z,3.53
2018-02-17T00:36:24.093Z,3.54
2018-02-17T00:36:28.099Z,3.45
2018-02-17T00:36:32.317Z,3.5
2018-02-17T00:36:36.645Z,3.59
2018-02-17T00:36:40.814Z,3.53
2018-02-17T00:36:44.943Z,3.54
2018-02-17T00:36:49.160Z,3.6
2018-02-17T00:36:53.380Z,3.53
2018-02-17T00:36:57.492Z,3.54
2018-02-17T00:37:01.495Z,3.52
2018-02-17T00:37:06.074Z,3.57
2018-02-17T00:37:10.298Z,3.59
2018-02-17T00:37:14.526Z,3.5
2018-02-17T00:37:18.643Z,3.56
2018-02-17T00:37:22.981Z,3.46
2018-02-17T00:37:26.884Z,3.45
2018-02-17T00:37:31.208Z,3.54
2018-02-17T00:37:35.329Z,3.53
2018-02-17T00:37:39.441Z,3.52
2018-02-17T00:37:43.663Z,3.56
2018-02-17T00:37:47.677Z,3.59
2018-02-17T00:37:51.693Z,3.59
2018-02-17T00:37:56.022Z,3.59
2018-02-17T00:38:00.352Z,3.56
2018-02-17T00:38:04.574Z,3.57
2018-02-17T00:38:08.851Z,3.59
2018-02-17T00:38:12.863Z,3.53
2018-02-17T00:38:16.983Z,3.59
2018-02-17T00:38:20.996Z,3.59
2018-02-17T00:38:25.222Z,3.52
2018-02-17T00:38:29.444Z,3.54
2018-02-17T00:38:33.665Z,3.57
2018-02-17T00:38:37.788Z,3.44
2018-02-17T00:38:42.119Z,3.54
2018-02-17T00:38:46.231Z,3.63
2018-02-17T00:38:50.449Z,3.6
2018-02-17T00:38:54.668Z,3.64
2018-02-17T00:38:59.002Z,3.52
2018-02-17T00:39:03.124Z,3.56
2018-02-17T00:39:07.135Z,3.5
2018-02-17T00:39:11.246Z,3.57
2018-02-17T00:39:15.463Z,3.56
2018-02-17T00:39:19.582Z,3.59
2018-02-17T00:39:23.597Z,3.62
2018-02-17T00:39:27.496Z,3.45
2018-02-17T00:39:31.718Z,3.52
2018-02-17T00:39:35.942Z,3.45
2018-02-17T00:39:40.314Z,3.57
2018-02-17T00:39:44.313Z,3.6
2018-02-17T00:39:48.548Z,3.56
2018-02-17T00:39:52.770Z,3.54
2018-02-17T00:39:57.092Z,3.59
2018-02-17T00:40:01.100Z,3.53
2018-02-17T00:40:05.325Z,3.57
2018-02-17T00:40:09.440Z,3.52
2018-02-17T00:40:13.665Z,3.53
2018-02-17T00:40:17.889Z,3.57
2018-02-17T00:40:22.208Z,3.53
2018-02-17T00:40:26.289Z,3.44
2018-02-17T00:40:30.679Z,3.49
2018-02-17T00:40:34.688Z,3.54
2018-02-17T00:40:38.703Z,3.49
2018-02-17T00:40:42.922Z,3.53
2018-02-17T00:40:47.140Z,3.49
2018-02-17T00:40:51.147Z,3.45
2018-02-17T00:40:55.149Z,3.52
2018-02-17T00:40:59.267Z,3.49
2018-02-17T00:41:03.175Z,3.45
2018-02-17T00:41:07.187Z,3.5
2018-02-17T00:41:11.404Z,3.52
2018-02-17T00:41:15.416Z,3.45
2018-02-17T00:41:19.631Z,3.49
2018-02-17T00:41:23.738Z,3.41
2018-02-17T00:41:27.953Z,3.52
2018-02-17T00:41:31.952Z,3.49
2018-02-17T00:41:35.972Z,3.54
2018-02-17T00:41:40.304Z,3.49
2018-02-17T00:41:44.530Z,3.53
2018-02-17T00:41:48.649Z,3.57
2018-02-17T00:41:52.766Z,3.5
2018-02-17T00:41:57.102Z,3.41
2018-02-17T00:42:01.222Z,3.49
2018-02-17T00:42:05.340Z,3.49
2018-02-17T00:42:09.569Z,3.41
2018-02-17T00:42:13.686Z,3.5
2018-02-17T00:42:17.915Z,3.59
2018-02-17T00:42:22.244Z,3.56
2018-02-17T00:42:26.466Z,3.42
2018-02-17T00:42:30.581Z,3.52
2018-02-17T00:42:34.803Z,3.52
2018-02-17T00:42:39.021Z,3.49
2018-02-17T00:42:43.348Z,3.45
2018-02-17T00:42:47.565Z,3.42
2018-02-17T00:42:51.677Z,3.46
2018-02-17T00:42:55.894Z,3.52
2018-02-17T00:43:00.114Z,3.49
2018-02-17T00:43:04.500Z,3.54
2018-02-17T00:43:08.505Z,3.53
2018-02-17T00:43:12.722Z,3.49
2018-02-17T00:43:16.727Z,3.49
2018-02-17T00:43:20.947Z,3.49
2018-02-17T00:43:25.168Z,3.49
2018-02-17T00:43:29.172Z,3.45
2018-02-17T00:43:33.391Z,3.45
2018-02-17T00:43:37.608Z,3.46
2018-02-17T00:43:41.831Z,3.5
2018-02-17T00:43:45.941Z,3.49
2018-02-17T00:43:49.838Z,3.49
2018-02-17T00:43:54.175Z,3.44
2018-02-17T00:43:58.514Z,3.44
2018-02-17T00:44:02.419Z,3.56
2018-02-17T00:44:06.537Z,3.52
2018-02-17T00:44:10.548Z,3.49
2018-02-17T00:44:14.764Z,3.49
2018-02-17T00:44:18.890Z,3.44
2018-02-17T00:44:23.019Z,3.46
2018-02-17T00:44:27.029Z,3.44
2018-02-17T00:44:31.141Z,3.52
2018-02-17T00:44:35.369Z,3.49
2018-02-17T00:44:39.695Z,3.49
2018-02-17T00:44:44.028Z,3.42
2018-02-17T00:44:48.037Z,3.49
2018-02-17T00:44:52.156Z,3.53
2018-02-17T00:44:56.437Z,3.44
2018-02-17T00:45:00.870Z,3.45
2018-02-17T00:45:04.874Z,3.53
2018-02-17T00:45:08.993Z,3.53
2018-02-17T00:45:13.101Z,3.52
2018-02-17T00:45:17.218Z,3.44
2018-02-17T00:45:21.435Z,3.52
2018-02-17T00:45:25.435Z,3.45
2018-02-17T00:45:29.660Z,3.59
2018-02-17T00:45:33.777Z,3.49
2018-02-17T00:45:38.000Z,3.49
2018-02-17T00:45:42.107Z,3.44
2018-02-17T00:45:46.112Z,3.59
2018-02-17T00:45:50.333Z,3.44
2018-02-17T00:45:54.560Z,3.53
2018-02-17T00:45:58.773Z,3.42
2018-02-17T00:46:03.240Z,3.52
2018-02-17T00:46:07.356Z,3.57
2018-02-17T00:46:11.366Z,3.44
2018-02-17T00:46:15.479Z,3.42
2018-02-17T00:46:19.597Z,3.53
2018-02-17T00:46:23.933Z,3.57
2018-02-17T00:46:28.054Z,3.5
2018-02-17T00:46:32.282Z,3.56
2018-02-17T00:46:36.290Z,3.53
2018-02-17T00:46:40.507Z,3.49
2018-02-17T00:46:44.625Z,3.57
2018-02-17T00:46:48.844Z,3.63
2018-02-17T00:46:52.860Z,3.54
2018-02-17T00:46:56.980Z,3.56
2018-02-17T00:47:00.989Z,3.53
2018-02-17T00:47:05.403Z,3.6
2018-02-17T00:47:09.891Z,3.56
2018-02-17T00:47:14.148Z,3.45
2018-02-17T00:47:18.159Z,3.62
2018-02-17T00:47:22.164Z,3.53
2018-02-17T00:47:26.384Z,3.6
2018-02-17T00:47:30.497Z,3.59
2018-02-17T00:47:34.723Z,3.62
2018-02-17T00:47:38.944Z,3.63
2018-02-17T00:47:43.165Z,3.53
2018-02-17T00:47:47.396Z,3.56
2018-02-17T00:47:51.675Z,3.52
2018-02-17T00:47:55.694Z,3.54
2018-02-17T00:47:59.932Z,3.62
2018-02-17T00:48:04.335Z,3.54
2018-02-17T00:48:08.444Z,3.54
2018-02-17T00:48:12.780Z,3.6
2018-02-17T00:48:16.789Z,3.63
2018-02-17T00:48:20.795Z,3.53
2018-02-17T00:48:25.068Z,3.59
2018-02-17T00:48:29.012Z,3.62
2018-02-17T00:48:33.136Z,3.53
2018-02-17T00:48:37.251Z,3.56
2018-02-17T00:48:41.470Z,3.56
2018-02-17T00:48:45.586Z,3.59
2018-02-17T00:48:49.705Z,3.64
2018-02-17T00:48:53.819Z,3.62
2018-02-17T00:48:57.723Z,3.53
2018-02-17T00:49:01.953Z,3.68
2018-02-17T00:49:06.281Z,3.67
2018-02-17T00:49:10.392Z,3.6
2018-02-17T00:49:14.510Z,3.53
2018-02-17T00:49:18.843Z,3.63
2018-02-17T00:49:22.960Z,3.68
2018-02-17T00:49:26.969Z,3.63
2018-02-17T00:49:30.971Z,3.6
2018-02-17T00:49:35.091Z,3.59
2018-02-17T00:49:39.316Z,3.64
2018-02-17T00:49:43.537Z,3.6
2018-02-17T00:49:47.867Z,3.63
2018-02-17T00:49:51.876Z,3.57
2018-02-17T00:49:55.993Z,3.6
2018-02-17T00:50:00.000Z,3.62
2018-02-17T00:50:04.201Z,3.63
2018-02-17T00:50:08.204Z,3.57
2018-02-17T00:50:12.320Z,3.6
2018-02-17T00:50:16.323Z,3.67
2018-02-17T00:50:20.436Z,3.62
2018-02-17T00:50:24.766Z,3.6
2018-02-17T00:50:28.666Z,3.57
2018-02-17T00:50:32.789Z,3.6
2018-02-17T00:50:36.580Z,3.6
2018-02-17T00:50:40.588Z,3.64
2018-02-17T00:50:44.597Z,3.6
2018-02-17T00:50:48.718Z,3.64
2018-02-17T00:50:52.943Z,3.7
2018-02-17T00:50:57.053Z,3.63
2018-02-17T00:51:01.278Z,3.68
2018-02-17T00:51:05.658Z,3.57
2018-02-17T00:51:09.773Z,3.68
2018-02-17T00:51:13.993Z,3.57
2018-02-17T00:51:18.235Z,3.57
2018-02-17T00:51:22.456Z,3.64
2018-02-17T00:51:26.462Z,3.63
2018-02-17T00:51:30.691Z,3.59
2018-02-17T00:51:34.590Z,3.59
2018-02-17T00:51:38.921Z,3.57
2018-02-17T00:51:43.247Z,3.62
2018-02-17T00:51:47.376Z,3.6
2018-02-17T00:51:51.491Z,3.59
2018-02-17T00:51:55.714Z,3.6
2018-02-17T00:51:59.928Z,3.62
2018-02-17T00:52:04.035Z,3.63
2018-02-17T00:52:08.365Z,3.64
2018-02-17T00:52:12.477Z,3.6
2018-02-17T00:52:16.696Z,3.62
2018-02-17T00:52:20.700Z,3.62
2018-02-17T00:52:24.819Z,3.71
2018-02-17T00:52:28.834Z,3.62
2018-02-17T00:52:33.061Z,3.74
2018-02-17T00:52:37.282Z,3.6
2018-02-17T00:52:41.502Z,3.67
2018-02-17T00:52:45.839Z,3.67
2018-02-17T00:52:50.062Z,3.6
2018-02-17T00:52:54.288Z,3.62
2018-02-17T00:52:58.511Z,3.64
2018-02-17T00:53:03.027Z,3.5
2018-02-17T00:53:07.401Z,3.62
2018-02-17T00:53:11.731Z,3.62
2018-02-17T00:53:15.848Z,3.64
2018-02-17T00:53:20.169Z,3.6
2018-02-17T00:53:24.176Z,3.64
2018-02-17T00:53:28.288Z,3.64
2018-02-17T00:53:32.508Z,3.64
2018-02-17T00:53:36.842Z,3.62
2018-02-17T00:53:41.066Z,3.56
2018-02-17T00:53:45.176Z,3.6
2018-02-17T00:53:49.406Z,3.6
2018-02-17T00:53:53.631Z,3.63
2018-02-17T00:53:57.753Z,3.62
2018-02-17T00:54:01.867Z,3.64
2018-02-17T00:54:05.984Z,3.63
2018-02-17T00:54:10.324Z,3.59
2018-02-17T00:54:14.440Z,3.59
2018-02-17T00:54:18.725Z,3.68
2018-02-17T00:54:22.844Z,3.59
2018-02-17T00:54:26.743Z,3.7
2018-02-17T00:54:30.869Z,3.72
2018-02-17T00:54:35.203Z,3.68
2018-02-17T00:54:39.418Z,3.7
2018-02-17T00:54:43.642Z,3.53
2018-02-17T00:54:47.861Z,3.7
2018-02-17T00:54:52.197Z,3.62
2018-02-17T00:54:56.423Z,3.71
2018-02-17T00:55:00.544Z,3.72
2018-02-17T00:55:04.660Z,3.63
2018-02-17T00:55:08.882Z,3.74
2018-02-17T00:55:13.114Z,3.63
2018-02-17T00:55:17.338Z,3.6
2018-02-17T00:55:21.680Z,3.72
2018-02-17T00:55:25.686Z,3.59
2018-02-17T00:55:29.808Z,3.72
2018-02-17T00:55:34.033Z,3.59
2018-02-17T00:55:38.364Z,3.57
2018-02-17T00:55:42.372Z,3.59
2018-02-17T00:55:46.599Z,3.63
2018-02-17T00:55:50.607Z,3.54
2018-02-17T00:55:54.731Z,3.59